LOWILJLJ

Guest
Details From LOWI - Innsbruck Kranebitten
To LJLJ - Ljubljana
Flight Number -
Tags Generated
Created
Modified
Stats Distance 142 nm / 263 km
Max Altitude 0 ft / 0 m
Waypoints 2
Social Downloads 2
Likes 0
Share VATSIM

Download

Looking for another format? Having issues loading an existing format? Contact us
Advertisement - Login to hide

Notes

Generated

Route

LOWI LJLJ

ID Type Via Altitude Latitude Longitude Leg Dist Tot Dist Heading (true) Name
O LOWI APT - 0 ft / 0 m 47.25883˚ 11.33091˚ - 0 nm - -
O LJLJ APT - 0 ft / 0 m 46.23249˚ 14.44039˚ 142 nm 142 nm 115° / 117° -

Altitude Profile

Advertisement - Login to hide

LOWI

Details ICAO LOWI (INN)
Name Innsbruck Kranebitten
Region Austria
Timezone Europe/Vienna (UTC+1.0)
Stats Elevation 1,906 ft / 581 m (AMSL)
Location 47.260226° 11.343967°
Runways 1
Magnetic Variation 3.018° E

METAR

LOWI 121950Z VRB02KT 1500 -SN BR VV009 00/M00 Q1016 R08/2///95 TEMPO 6000 -SN SCT005 BKN025

Decode

TAF

TAF LOWI 121715Z 1218/1318 VRB02KT 6000 -SN SCT005 OVC020 TX03/1313Z TNM01/1307Z TEMPO 1218/1221 1500 SN VV005 BECMG 1221/1223 NSW BKN010 PROB40 1223/1310 OVC005 BECMG 1309/1311 9999 FEW010 SCT050

Decode

Departure Runways

ID Width Length Bearing (true) Bearing (mag) Surface Threshold Offset Overrun Length
08 148 ft / 45 m 6,545 ft / 1,995 m 81.02° 78.00° Asphalt 338 ft / 103 m 0 ft / 0 m
26 148 ft / 45 m 6,545 ft / 1,995 m 261.04° 258.02° Asphalt 0 ft / 0 m 0 ft / 0 m

LJLJ

Details ICAO LJLJ (LJU)
Name LJUBLJANA
Region Slovenia
Timezone Europe/Ljubljana (UTC+1.0)
Stats Elevation 1,273 ft / 388 m (AMSL)
Location 46.223685° 14.457608°
Runways 1
Magnetic Variation 3.661° E

METAR

LJLJ 122000Z 10003KT 060V130 9999 BKN033 OVC100 05/05 Q1012 NOSIG

Decode

TAF

TAF LJLJ 122000Z 1221/1321 27004KT 9999 SCT040 OVC100 TEMPO 1221/1303 10003KT -RA BKN035 OVC060 BECMG 1303/1305 10005KT 7000 RASN BKN010 OVC020 BECMG 1305/1307 3500 SN TEMPO 1306/1311 10010KT 0800 VV005 BECMG 1312/1315 7000 NSW TEMPO 1315/1321 SCT010 OVC020

Decode

Destination Runways

ID Width Length Bearing (true) Bearing (mag) Surface Threshold Offset Overrun Length
13 148 ft / 45 m 10,811 ft / 3,295 m 126.47° 122.81° Asphalt 0 ft / 0 m 0 ft / 0 m
31 148 ft / 45 m 10,811 ft / 3,295 m 306.49° 302.83° Asphalt 0 ft / 0 m 0 ft / 0 m

Approach Navaids

Runway Type Ident Frequency Range Bearing (true) Bearing (mag) Slope Elevation
31 Localiser LJB 110.50 MHz 18 nm / 33 km 306.46° 302.80° - 1,282 ft / 391 m (AMSL)
31 Glidescope LJB 110.50 MHz 10 nm / 19 km 306.48° 302.82° 3.00° 1,198 ft / 365 m (AMSL)
31 DME LJB 110.50 MHz 18 nm / 33 km - - - 1,198 ft / 365 m (AMSL)

Popular Alternatives